createdAt,value
2022-08-03T00:00:37.114Z,10.20
2022-08-03T00:01:37.102Z,11.60
2022-08-03T00:02:37.123Z,8.60
2022-08-03T00:03:37.091Z,8.50
2022-08-03T00:04:37.086Z,11.90
2022-08-03T00:05:37.096Z,8.20
2022-08-03T00:06:37.428Z,9.80
2022-08-03T00:07:38.062Z,10.50
2022-08-03T00:08:40.057Z,9.70
2022-08-03T00:09:37.049Z,12.50
2022-08-03T00:10:37.039Z,12.20
2022-08-03T00:11:38.034Z,11.30
2022-08-03T00:12:37.026Z,12.80
2022-08-03T00:13:37.022Z,10.90
2022-08-03T00:14:37.018Z,12.60
2022-08-03T00:15:37.009Z,12.50
2022-08-03T00:16:37.005Z,12.70
2022-08-03T00:17:53.674Z,13.20
2022-08-03T00:18:37.994Z,11.10
2022-08-03T00:19:36.978Z,11.70
2022-08-03T00:20:37.010Z,13.30
2022-08-03T00:21:36.971Z,11.00
2022-08-03T00:22:36.959Z,11.80
2022-08-03T00:23:52.510Z,15.20
2022-08-03T00:24:37.946Z,11.80
2022-08-03T00:25:36.970Z,14.10
2022-08-03T00:26:36.942Z,14.90
2022-08-03T00:27:36.935Z,12.40
2022-08-03T00:28:36.922Z,13.50
2022-08-03T00:29:59.642Z,13.20
2022-08-03T00:30:37.921Z,12.20
2022-08-03T00:31:51.688Z,11.30
2022-08-03T00:32:38.823Z,11.60
2022-08-03T00:33:58.921Z,11.30
2022-08-03T00:34:57.228Z,17.00
2022-08-03T00:35:50.362Z,11.60
2022-08-03T00:36:37.883Z,12.10
2022-08-03T00:37:41.320Z,12.60
2022-08-03T00:38:37.855Z,10.30
2022-08-03T00:39:36.853Z,13.70
2022-08-03T00:40:36.846Z,10.40
2022-08-03T00:41:36.848Z,10.00
2022-08-03T00:42:36.827Z,11.70
2022-08-03T00:43:36.822Z,13.90
2022-08-03T00:44:36.814Z,12.40
2022-08-03T00:45:36.791Z,15.40
2022-08-03T00:46:36.815Z,12.80
2022-08-03T00:47:36.781Z,12.40
2022-08-03T00:48:36.795Z,10.40
2022-08-03T00:49:36.824Z,12.20
2022-08-03T00:50:36.781Z,11.20
2022-08-03T00:51:36.766Z,10.80
2022-08-03T00:52:36.775Z,9.70
2022-08-03T00:53:36.753Z,9.70
2022-08-03T00:54:36.739Z,9.50
2022-08-03T00:55:36.734Z,12.30
2022-08-03T00:56:36.726Z,10.10
2022-08-03T00:57:36.734Z,12.80
2022-08-03T00:58:36.710Z,13.20
2022-08-03T00:59:36.705Z,10.10
2022-08-03T01:00:36.698Z,11.60
2022-08-03T01:01:36.719Z,13.70
2022-08-03T01:02:36.686Z,10.60
2022-08-03T01:03:36.690Z,12.30
2022-08-03T01:04:36.673Z,10.50
2022-08-03T01:05:36.657Z,10.90
2022-08-03T01:06:36.659Z,9.90
2022-08-03T01:07:36.657Z,13.00
2022-08-03T01:08:36.651Z,11.30
2022-08-03T01:09:36.640Z,11.90
2022-08-03T01:10:36.626Z,12.70
2022-08-03T01:11:36.626Z,11.80
2022-08-03T01:12:37.633Z,11.00
2022-08-03T01:14:04.476Z,17.70
2022-08-03T01:14:37.601Z,12.20
2022-08-03T01:15:36.593Z,12.80
2022-08-03T01:16:37.223Z,10.20
2022-08-03T01:17:36.604Z,12.90
2022-08-03T01:18:36.577Z,13.90
2022-08-03T01:19:36.561Z,9.50
2022-08-03T01:20:36.562Z,13.00
2022-08-03T01:21:36.558Z,17.50
2022-08-03T01:22:36.562Z,12.80
2022-08-03T01:23:36.529Z,13.70
2022-08-03T01:24:37.531Z,10.40
2022-08-03T01:25:36.560Z,13.20
2022-08-03T01:26:36.517Z,10.90
2022-08-03T01:27:36.517Z,8.70
2022-08-03T01:28:36.521Z,9.60
2022-08-03T01:29:36.505Z,11.60
2022-08-03T01:30:36.490Z,9.70
2022-08-03T01:31:36.491Z,11.70
2022-08-03T01:32:59.421Z,12.50
2022-08-03T01:33:37.486Z,14.40
2022-08-03T01:34:36.469Z,13.10
2022-08-03T01:35:38.442Z,11.60
2022-08-03T01:36:36.451Z,12.70
2022-08-03T01:37:36.447Z,12.60
2022-08-03T01:38:36.457Z,15.00
2022-08-03T01:39:36.430Z,13.30
2022-08-03T01:40:36.429Z,13.10
2022-08-03T01:41:36.416Z,11.00
2022-08-03T01:42:36.414Z,10.90
2022-08-03T01:44:26.828Z,9.30
2022-08-03T01:44:37.413Z,13.30
2022-08-03T01:45:36.389Z,11.20
2022-08-03T01:46:36.392Z,11.20
2022-08-03T01:47:36.377Z,11.80
2022-08-03T01:48:36.364Z,14.30
2022-08-03T01:49:36.417Z,11.00
2022-08-03T01:50:36.346Z,13.20
2022-08-03T01:52:02.761Z,14.50
2022-08-03T01:52:37.340Z,11.90
2022-08-03T01:53:36.333Z,10.70
2022-08-03T01:54:36.370Z,15.40
2022-08-03T01:55:36.325Z,11.50
2022-08-03T01:56:36.317Z,14.30
2022-08-03T01:58:04.813Z,11.70
2022-08-03T01:58:37.298Z,11.60
2022-08-03T01:59:36.304Z,10.60
2022-08-03T02:00:36.297Z,13.30
2022-08-03T02:02:28.326Z,10.70
2022-08-03T02:02:37.645Z,12.10
2022-08-03T02:03:36.273Z,11.40
2022-08-03T02:04:36.252Z,13.30
2022-08-03T02:05:36.267Z,14.40
2022-08-03T02:07:01.968Z,14.60
2022-08-03T02:07:37.237Z,10.20
2022-08-03T02:08:36.232Z,12.90
2022-08-03T02:09:36.224Z,12.20
2022-08-03T02:10:36.234Z,12.70
2022-08-03T02:11:36.209Z,9.90
2022-08-03T02:12:36.212Z,12.30
2022-08-03T02:13:36.194Z,16.30
2022-08-03T02:14:36.196Z,10.90
2022-08-03T02:15:36.208Z,9.70
2022-08-03T02:16:36.173Z,11.50
2022-08-03T02:17:39.124Z,13.50
2022-08-03T02:18:36.168Z,13.80
2022-08-03T02:19:36.160Z,13.70
2022-08-03T02:20:36.160Z,10.20
2022-08-03T02:21:56.746Z,15.90
2022-08-03T02:22:37.136Z,13.80
2022-08-03T02:23:36.131Z,13.30
2022-08-03T02:24:36.134Z,12.80
2022-08-03T02:25:36.115Z,16.50
2022-08-03T02:26:36.112Z,13.70
2022-08-03T02:27:39.384Z,11.90
2022-08-03T02:28:37.091Z,10.90
2022-08-03T02:29:39.457Z,11.80
2022-08-03T02:30:36.104Z,11.70
2022-08-03T02:31:36.087Z,11.30
2022-08-03T02:32:36.078Z,12.60
2022-08-03T02:33:36.063Z,16.10
2022-08-03T02:34:36.059Z,11.60
2022-08-03T02:35:36.047Z,12.00
2022-08-03T02:36:36.052Z,13.90
2022-08-03T02:37:36.032Z,14.10
2022-08-03T02:38:36.020Z,12.60
2022-08-03T02:39:36.032Z,16.10
2022-08-03T02:40:36.020Z,12.50
2022-08-03T02:41:36.020Z,16.60
2022-08-03T02:42:36.000Z,20.20
2022-08-03T02:43:40.209Z,16.40
2022-08-03T02:44:36.987Z,19.00
2022-08-03T02:45:35.983Z,12.50
2022-08-03T02:46:36.004Z,13.40
2022-08-03T02:47:53.653Z,14.80
2022-08-03T02:48:36.964Z,12.60
2022-08-03T02:49:49.731Z,13.80
2022-08-03T02:50:36.940Z,13.20
2022-08-03T02:51:35.963Z,15.50
2022-08-03T02:52:35.927Z,17.20
2022-08-03T02:53:35.916Z,14.90
2022-08-03T02:54:35.919Z,11.80
2022-08-03T02:55:35.909Z,13.80
2022-08-03T02:56:36.916Z,13.10
2022-08-03T02:57:35.891Z,12.50
2022-08-03T02:58:35.875Z,19.60
2022-08-03T02:59:35.883Z,14.60
2022-08-03T03:00:35.883Z,14.90
2022-08-03T03:01:35.866Z,16.80
2022-08-03T03:02:35.878Z,15.50
2022-08-03T03:03:44.585Z,15.10
2022-08-03T03:04:36.843Z,15.90
2022-08-03T03:05:56.008Z,15.50
2022-08-03T03:06:36.820Z,16.20
2022-08-03T03:07:51.472Z,12.30
2022-08-03T03:08:36.815Z,13.10
2022-08-03T03:09:41.577Z,15.00
2022-08-03T03:10:36.795Z,12.90
2022-08-03T03:11:35.791Z,12.20
2022-08-03T03:12:35.787Z,12.80
2022-08-03T03:13:35.763Z,16.20
2022-08-03T03:14:35.768Z,15.90
2022-08-03T03:15:35.748Z,16.40
2022-08-03T03:16:35.755Z,14.60
2022-08-03T03:17:35.755Z,14.00
2022-08-03T03:18:35.733Z,12.20
2022-08-03T03:19:35.734Z,13.10
2022-08-03T03:20:35.729Z,16.70
2022-08-03T03:21:35.711Z,16.20
2022-08-03T03:22:35.715Z,18.50
2022-08-03T03:23:35.707Z,14.60
2022-08-03T03:24:35.703Z,11.80
2022-08-03T03:25:35.704Z,13.40
2022-08-03T03:26:37.374Z,15.00
2022-08-03T03:27:36.682Z,15.30
2022-08-03T03:28:35.682Z,15.80
2022-08-03T03:29:39.164Z,16.30
2022-08-03T03:30:35.676Z,18.00
2022-08-03T03:31:35.647Z,17.10
2022-08-03T03:32:35.648Z,12.80
2022-08-03T03:33:35.635Z,11.30
2022-08-03T03:34:35.630Z,15.10
2022-08-03T03:35:39.013Z,13.70
2022-08-03T03:36:35.618Z,17.20
2022-08-03T03:37:35.615Z,17.20
2022-08-03T03:38:35.604Z,14.30
2022-08-03T03:39:35.596Z,17.50
2022-08-03T03:40:35.598Z,14.00
2022-08-03T03:41:35.566Z,20.20
2022-08-03T03:42:35.579Z,12.70
2022-08-03T03:43:35.570Z,14.10
2022-08-03T03:44:35.550Z,15.30
2022-08-03T03:45:35.574Z,15.60
2022-08-03T03:46:35.547Z,14.60
2022-08-03T03:47:35.530Z,12.40
2022-08-03T03:48:35.510Z,14.10
2022-08-03T03:49:35.559Z,15.90
2022-08-03T03:50:35.509Z,14.90
2022-08-03T03:51:36.522Z,13.40
2022-08-03T03:52:35.495Z,14.00
2022-08-03T03:53:35.494Z,16.70
2022-08-03T03:54:35.479Z,18.30
2022-08-03T03:55:35.490Z,15.30
2022-08-03T03:56:36.474Z,15.30
2022-08-03T03:57:35.469Z,13.00
2022-08-03T03:58:35.458Z,13.90
2022-08-03T03:59:36.018Z,13.70
2022-08-03T04:00:35.490Z,15.10
2022-08-03T04:01:35.446Z,13.60
2022-08-03T04:02:35.436Z,13.30
2022-08-03T04:03:35.423Z,11.60
2022-08-03T04:04:35.421Z,18.40
2022-08-03T04:05:35.405Z,16.30
2022-08-03T04:06:35.422Z,14.50
2022-08-03T04:07:35.391Z,11.80
2022-08-03T04:08:35.390Z,16.10
2022-08-03T04:09:35.380Z,11.90
2022-08-03T04:10:35.406Z,16.20
2022-08-03T04:11:35.393Z,15.80
2022-08-03T04:12:35.358Z,15.60
2022-08-03T04:13:35.365Z,18.10
2022-08-03T04:14:35.353Z,14.70
2022-08-03T04:15:35.336Z,14.20
2022-08-03T04:16:35.325Z,16.10
2022-08-03T04:17:35.340Z,17.70
2022-08-03T04:18:35.301Z,18.70
2022-08-03T04:19:36.320Z,13.60
2022-08-03T04:20:35.299Z,13.80
2022-08-03T04:21:35.290Z,13.40
2022-08-03T04:22:35.286Z,15.00
2022-08-03T04:23:35.282Z,16.40
2022-08-03T04:24:35.278Z,14.70
2022-08-03T04:25:35.254Z,16.70
2022-08-03T04:26:35.262Z,14.50
2022-08-03T04:27:35.249Z,14.20
2022-08-03T04:28:35.245Z,19.50
2022-08-03T04:29:35.241Z,15.10
2022-08-03T04:30:35.217Z,16.80
2022-08-03T04:31:35.220Z,16.50
2022-08-03T04:32:35.206Z,16.10
2022-08-03T04:33:35.211Z,15.90
2022-08-03T04:34:35.206Z,15.80
2022-08-03T04:35:54.763Z,17.20
2022-08-03T04:36:36.182Z,14.70
2022-08-03T04:37:35.171Z,18.20
2022-08-03T04:38:35.158Z,17.90
2022-08-03T04:39:35.179Z,15.50
2022-08-03T04:40:35.149Z,17.50
2022-08-03T04:42:07.931Z,19.50
2022-08-03T04:42:36.133Z,22.50
2022-08-03T04:43:35.130Z,16.60
2022-08-03T04:44:35.130Z,19.70
2022-08-03T04:45:35.107Z,16.80
2022-08-03T04:46:35.106Z,16.50
2022-08-03T04:47:35.089Z,16.40
2022-08-03T04:48:35.089Z,25.40
2022-08-03T04:49:35.167Z,19.70
2022-08-03T04:50:35.079Z,16.70
2022-08-03T04:51:35.066Z,21.10
2022-08-03T04:52:35.050Z,20.40
2022-08-03T04:53:35.054Z,15.80
2022-08-03T04:54:35.049Z,18.50
2022-08-03T04:55:35.029Z,16.40
2022-08-03T04:56:35.030Z,16.70
2022-08-03T04:57:35.022Z,18.80
2022-08-03T04:58:35.021Z,16.40
2022-08-03T04:59:35.018Z,21.70
2022-08-03T05:00:35.030Z,21.10
2022-08-03T05:01:35.035Z,14.80
2022-08-03T05:02:34.984Z,20.90
2022-08-03T05:03:34.978Z,14.10
2022-08-03T05:04:34.979Z,13.40
2022-08-03T05:05:49.715Z,21.60
2022-08-03T05:06:35.956Z,15.10
2022-08-03T05:07:36.205Z,19.50
2022-08-03T05:08:34.940Z,14.30
2022-08-03T05:09:49.871Z,15.90
2022-08-03T05:10:35.950Z,17.80
2022-08-03T05:11:34.921Z,13.80
2022-08-03T05:12:34.914Z,15.50
2022-08-03T05:13:34.907Z,17.40
2022-08-03T05:14:34.903Z,13.90
2022-08-03T05:15:34.894Z,17.60
2022-08-03T05:16:35.895Z,14.30
2022-08-03T05:17:34.900Z,14.20
2022-08-03T05:18:34.879Z,11.70
2022-08-03T05:19:34.879Z,15.70
2022-08-03T05:20:34.867Z,16.80
2022-08-03T05:21:52.059Z,15.20
2022-08-03T05:22:35.850Z,17.10
2022-08-03T05:23:34.839Z,17.80
2022-08-03T05:24:34.827Z,13.30
2022-08-03T05:25:34.830Z,11.50
2022-08-03T05:26:34.887Z,15.50
2022-08-03T05:27:34.810Z,13.20
2022-08-03T05:28:34.802Z,14.40
2022-08-03T05:29:34.804Z,15.40
2022-08-03T05:30:34.890Z,14.20
2022-08-03T05:31:34.790Z,14.50
2022-08-03T05:32:34.783Z,16.80
2022-08-03T05:33:34.759Z,13.90
2022-08-03T05:34:34.767Z,13.60
2022-08-03T05:35:57.983Z,15.20
2022-08-03T05:36:35.779Z,16.50
2022-08-03T05:37:34.743Z,16.40
2022-08-03T05:38:35.583Z,15.30
2022-08-03T05:39:34.723Z,19.90
2022-08-03T05:40:34.714Z,13.10
2022-08-03T05:41:37.054Z,15.10
2022-08-03T05:42:34.719Z,13.40
2022-08-03T05:43:34.705Z,13.10
2022-08-03T05:44:34.698Z,17.80
2022-08-03T05:45:34.679Z,14.00
2022-08-03T05:46:35.678Z,17.90
2022-08-03T05:47:34.695Z,14.90
2022-08-03T05:48:34.667Z,20.40
2022-08-03T05:49:34.755Z,17.10
2022-08-03T05:50:34.655Z,12.80
2022-08-03T05:51:34.635Z,13.80
2022-08-03T05:52:34.635Z,15.10
2022-08-03T05:53:34.650Z,14.80
2022-08-03T05:54:55.606Z,17.00
2022-08-03T05:55:35.619Z,16.40
2022-08-03T05:56:34.614Z,15.90
2022-08-03T05:57:34.603Z,11.80
2022-08-03T05:58:34.607Z,13.90
2022-08-03T05:59:38.693Z,16.10
2022-08-03T06:00:35.586Z,15.80
2022-08-03T06:01:34.610Z,14.80
2022-08-03T06:02:34.571Z,11.90
2022-08-03T06:03:34.573Z,17.50
2022-08-03T06:04:34.575Z,17.80
2022-08-03T06:05:34.547Z,14.50
2022-08-03T06:06:35.543Z,10.60
2022-08-03T06:07:34.537Z,14.70
2022-08-03T06:08:34.527Z,12.80
2022-08-03T06:10:33.733Z,14.10
2022-08-03T06:10:38.353Z,14.70
2022-08-03T06:11:34.515Z,12.50
2022-08-03T06:12:34.511Z,11.10
2022-08-03T06:13:34.510Z,18.30
2022-08-03T06:14:34.524Z,17.10
2022-08-03T06:15:34.487Z,14.80
2022-08-03T06:16:34.483Z,13.70
2022-08-03T06:17:37.236Z,14.10
2022-08-03T06:18:34.462Z,14.80
2022-08-03T06:19:34.470Z,12.90
2022-08-03T06:20:34.455Z,11.70
2022-08-03T06:21:34.451Z,15.70
2022-08-03T06:22:34.431Z,16.00
2022-08-03T06:23:53.264Z,12.50
2022-08-03T06:24:35.438Z,18.20
2022-08-03T06:25:34.418Z,13.20
2022-08-03T06:26:34.408Z,13.20
2022-08-03T06:27:36.548Z,14.50
2022-08-03T06:28:53.303Z,12.60
2022-08-03T06:29:36.395Z,15.90
2022-08-03T06:30:34.399Z,10.80
2022-08-03T06:31:34.380Z,15.40
2022-08-03T06:32:34.362Z,14.40
2022-08-03T06:34:31.539Z,10.40
2022-08-03T06:34:35.843Z,13.60
2022-08-03T06:35:34.371Z,11.90
2022-08-03T06:36:34.343Z,10.10
2022-08-03T06:37:34.352Z,11.00
2022-08-03T06:38:34.319Z,14.00
2022-08-03T06:39:34.331Z,9.90
2022-08-03T06:40:34.331Z,10.10
2022-08-03T06:41:38.025Z,15.40
2022-08-03T06:42:34.307Z,11.60
2022-08-03T06:43:35.857Z,12.90
2022-08-03T06:44:34.299Z,16.30
2022-08-03T06:45:34.303Z,12.40
2022-08-03T06:46:34.291Z,11.00
2022-08-03T06:47:34.275Z,13.30
2022-08-03T06:48:34.282Z,14.20
2022-08-03T06:49:34.344Z,11.50
2022-08-03T06:50:34.275Z,12.00
2022-08-03T06:52:03.239Z,11.90
2022-08-03T06:52:37.879Z,13.30
2022-08-03T06:53:34.244Z,12.20
2022-08-03T06:54:34.219Z,8.70
2022-08-03T06:55:34.266Z,10.90
2022-08-03T06:56:35.220Z,9.10
2022-08-03T06:57:34.235Z,14.80
2022-08-03T06:58:34.203Z,8.60
2022-08-03T07:00:06.427Z,12.00
2022-08-03T07:00:35.187Z,12.00
2022-08-03T07:01:34.231Z,12.00
2022-08-03T07:02:34.191Z,10.00
2022-08-03T07:03:34.165Z,10.70
2022-08-03T07:04:34.167Z,11.50
2022-08-03T07:05:34.165Z,13.50
2022-08-03T07:06:34.152Z,10.40
2022-08-03T07:07:34.149Z,14.20
2022-08-03T07:08:34.621Z,9.80
2022-08-03T07:09:35.132Z,9.50
2022-08-03T07:10:34.125Z,13.80
2022-08-03T07:11:34.120Z,10.10
2022-08-03T07:12:34.108Z,11.60
2022-08-03T07:13:34.118Z,10.30
2022-08-03T07:14:34.103Z,9.90
2022-08-03T07:15:53.921Z,12.70
2022-08-03T07:16:35.087Z,10.60
2022-08-03T07:17:34.099Z,12.60
2022-08-03T07:18:34.071Z,12.90
2022-08-03T07:19:34.056Z,11.30
2022-08-03T07:20:34.061Z,8.90
2022-08-03T07:21:34.044Z,12.60
2022-08-03T07:22:34.059Z,12.00
2022-08-03T07:23:34.035Z,12.20
2022-08-03T07:24:34.024Z,10.70
2022-08-03T07:25:34.024Z,9.50
2022-08-03T07:26:34.023Z,12.20
2022-08-03T07:27:34.023Z,10.80
2022-08-03T07:28:34.004Z,10.90
2022-08-03T07:29:34.905Z,15.10
2022-08-03T07:30:33.979Z,14.60
2022-08-03T07:31:34.359Z,11.80
2022-08-03T07:32:33.984Z,15.80
2022-08-03T07:33:33.975Z,14.10
2022-08-03T07:34:33.964Z,11.80
2022-08-03T07:35:34.043Z,14.00
2022-08-03T07:36:34.435Z,12.20
2022-08-03T07:37:34.019Z,18.90
2022-08-03T07:38:33.938Z,9.70
2022-08-03T07:39:33.923Z,13.80
2022-08-03T07:40:33.930Z,9.90
2022-08-03T07:41:33.922Z,13.20
2022-08-03T07:42:33.912Z,18.60
2022-08-03T07:43:33.910Z,16.20
2022-08-03T07:44:33.899Z,18.70
2022-08-03T07:45:33.975Z,14.20
2022-08-03T07:46:33.908Z,12.10
2022-08-03T07:47:34.998Z,15.20
2022-08-03T07:48:33.879Z,17.70
2022-08-03T07:49:33.939Z,14.20
2022-08-03T07:50:33.867Z,9.60
2022-08-03T07:51:33.862Z,11.80
2022-08-03T07:52:33.839Z,35.30
2022-08-03T07:53:33.842Z,16.50
2022-08-03T07:54:34.840Z,12.70
2022-08-03T07:55:34.017Z,10.50
2022-08-03T07:56:33.818Z,12.40
2022-08-03T07:57:33.828Z,8.30
2022-08-03T07:58:33.823Z,11.90
2022-08-03T07:59:57.102Z,6.80
2022-08-03T08:00:35.796Z,8.00
2022-08-03T08:01:33.846Z,9.80
2022-08-03T08:02:33.790Z,11.10
2022-08-03T08:03:41.111Z,11.60
2022-08-03T08:04:34.786Z,9.20
2022-08-03T08:05:33.759Z,9.00
2022-08-03T08:06:33.794Z,10.70
2022-08-03T08:07:33.752Z,10.10
2022-08-03T08:08:33.726Z,9.50
2022-08-03T08:09:34.742Z,9.30
2022-08-03T08:10:33.722Z,9.10
2022-08-03T08:11:38.177Z,16.90
2022-08-03T08:12:35.726Z,7.80
2022-08-03T08:13:33.711Z,6.60
2022-08-03T08:14:33.738Z,7.60
2022-08-03T08:15:33.714Z,7.20
2022-08-03T08:16:33.695Z,11.10
2022-08-03T08:17:33.690Z,12.10
2022-08-03T08:18:33.678Z,8.10
2022-08-03T08:19:33.682Z,11.00
2022-08-03T08:20:34.900Z,9.90
2022-08-03T08:21:53.214Z,7.00
2022-08-03T08:22:34.698Z,12.30
2022-08-03T08:23:43.759Z,9.50
2022-08-03T08:24:35.737Z,12.50
2022-08-03T08:25:33.637Z,8.30
2022-08-03T08:26:33.634Z,10.20
2022-08-03T08:28:22.452Z,11.20
2022-08-03T08:28:34.654Z,7.00
2022-08-03T08:29:34.618Z,12.00
2022-08-03T08:30:33.610Z,7.60
2022-08-03T08:31:33.593Z,10.80
2022-08-03T08:32:33.607Z,7.50
2022-08-03T08:33:48.343Z,10.10
2022-08-03T08:34:34.578Z,11.80
2022-08-03T08:35:33.590Z,10.60
2022-08-03T08:36:33.566Z,11.70
2022-08-03T08:37:33.562Z,12.90
2022-08-03T08:38:33.553Z,10.80
2022-08-03T08:39:33.546Z,8.20
2022-08-03T08:40:33.554Z,7.40
2022-08-03T08:41:33.522Z,7.50
2022-08-03T08:42:33.526Z,9.70
2022-08-03T08:43:33.521Z,8.80
2022-08-03T08:44:33.514Z,10.90
2022-08-03T08:45:33.503Z,11.10
2022-08-03T08:46:33.513Z,7.20
2022-08-03T08:47:51.044Z,8.20
2022-08-03T08:48:34.485Z,10.40
2022-08-03T08:49:33.542Z,8.30
2022-08-03T08:50:33.479Z,15.40
2022-08-03T08:51:59.777Z,14.00
2022-08-03T08:52:34.643Z,5.90
2022-08-03T08:53:33.457Z,12.10
2022-08-03T08:54:33.453Z,10.00
2022-08-03T08:55:58.897Z,7.40
2022-08-03T08:56:34.477Z,7.40
2022-08-03T08:57:42.951Z,9.80
2022-08-03T08:58:35.425Z,8.30
2022-08-03T08:59:48.491Z,9.40
2022-08-03T09:00:34.418Z,7.50
2022-08-03T09:01:33.471Z,11.30
2022-08-03T09:02:33.405Z,8.60
2022-08-03T09:03:33.401Z,6.30
2022-08-03T09:04:33.393Z,10.40
2022-08-03T09:05:54.936Z,8.90
2022-08-03T09:06:35.403Z,11.10
2022-08-03T09:07:33.737Z,8.10
2022-08-03T09:08:33.385Z,7.20
2022-08-03T09:10:12.570Z,9.20
2022-08-03T09:10:34.357Z,9.00
2022-08-03T09:11:52.558Z,9.60
2022-08-03T09:12:41.539Z,7.10
2022-08-03T09:13:35.361Z,8.60
2022-08-03T09:14:36.763Z,11.30
2022-08-03T09:15:33.326Z,7.80
2022-08-03T09:16:33.326Z,7.60
2022-08-03T09:17:33.309Z,7.10
2022-08-03T09:18:33.474Z,6.40
2022-08-03T09:19:33.328Z,9.20
2022-08-03T09:20:33.306Z,12.50
2022-08-03T09:21:34.459Z,9.00
2022-08-03T09:22:33.298Z,8.70
2022-08-03T09:23:59.233Z,8.20
2022-08-03T09:24:41.535Z,7.60
2022-08-03T09:25:35.274Z,9.30
2022-08-03T09:26:33.263Z,12.00
2022-08-03T09:27:33.262Z,7.70
2022-08-03T09:28:59.943Z,8.20
2022-08-03T09:29:34.268Z,8.00
2022-08-03T09:30:35.105Z,15.30
2022-08-03T09:31:33.235Z,14.70
2022-08-03T09:32:33.229Z,11.70
2022-08-03T09:33:35.918Z,14.60
2022-08-03T09:34:33.238Z,10.30
2022-08-03T09:35:51.570Z,17.90
2022-08-03T09:36:35.188Z,8.10
2022-08-03T09:38:12.048Z,8.80
2022-08-03T09:38:34.191Z,12.40
2022-08-03T09:39:41.955Z,14.30
2022-08-03T09:40:34.189Z,12.50
2022-08-03T09:41:33.172Z,10.50
2022-08-03T09:42:33.163Z,9.20
2022-08-03T09:43:33.164Z,11.00
2022-08-03T09:44:33.156Z,6.60
2022-08-03T09:45:33.156Z,12.10
2022-08-03T09:46:33.144Z,6.70
2022-08-03T09:47:33.144Z,8.70
2022-08-03T09:48:33.139Z,10.50
2022-08-03T09:49:33.228Z,15.20
2022-08-03T09:50:33.124Z,7.70
2022-08-03T09:52:31.765Z,9.70
2022-08-03T09:52:38.801Z,8.60
2022-08-03T09:53:34.116Z,8.10
2022-08-03T09:54:33.113Z,8.50
2022-08-03T09:56:34.219Z,9.70
2022-08-03T09:56:37.080Z,6.90
2022-08-03T09:57:33.087Z,10.30
2022-08-03T09:58:33.076Z,7.10
2022-08-03T09:59:33.253Z,9.00
2022-08-03T10:00:33.073Z,12.30
2022-08-03T10:01:33.101Z,9.30
2022-08-03T10:02:33.061Z,7.30
2022-08-03T10:03:33.044Z,10.70
2022-08-03T10:04:33.056Z,11.50
2022-08-03T10:05:33.057Z,8.10
2022-08-03T10:06:33.038Z,8.00
2022-08-03T10:07:33.033Z,8.10
2022-08-03T10:08:33.017Z,12.10
2022-08-03T10:09:33.038Z,8.30
2022-08-03T10:10:33.053Z,9.50
2022-08-03T10:11:35.227Z,8.10
2022-08-03T10:12:33.004Z,7.10
2022-08-03T10:13:32.996Z,7.50
2022-08-03T10:14:33.012Z,13.50
2022-08-03T10:16:22.286Z,7.50
2022-08-03T10:16:33.971Z,9.40
2022-08-03T10:17:35.194Z,11.20
2022-08-03T10:18:33.964Z,9.30
2022-08-03T10:19:32.991Z,11.00
2022-08-03T10:20:32.989Z,8.30
2022-08-03T10:21:33.001Z,9.90
2022-08-03T10:22:32.941Z,4.40
2022-08-03T10:23:34.063Z,6.80
2022-08-03T10:24:33.957Z,11.90
2022-08-03T10:25:33.551Z,8.70
2022-08-03T10:26:32.929Z,6.90
2022-08-03T10:27:32.916Z,13.10
2022-08-03T10:28:32.921Z,7.30
2022-08-03T10:29:32.915Z,6.20
2022-08-03T10:30:33.008Z,10.30
2022-08-03T10:31:32.908Z,10.60
2022-08-03T10:32:32.964Z,10.70
2022-08-03T10:33:51.149Z,8.80
2022-08-03T10:34:33.877Z,8.30
2022-08-03T10:35:32.916Z,8.40
2022-08-03T10:36:32.875Z,8.90
2022-08-03T10:37:32.880Z,10.20
2022-08-03T10:38:32.864Z,9.50
2022-08-03T10:39:32.864Z,7.00
2022-08-03T10:40:47.969Z,8.50
2022-08-03T10:41:34.872Z,6.10
2022-08-03T10:42:32.844Z,12.00
2022-08-03T10:43:32.828Z,8.70
2022-08-03T10:44:32.832Z,5.20
2022-08-03T10:45:32.847Z,11.40
2022-08-03T10:46:32.849Z,7.00
2022-08-03T10:47:32.841Z,8.40
2022-08-03T10:48:32.817Z,11.30
2022-08-03T10:49:34.492Z,9.80
2022-08-03T10:50:32.808Z,12.60
2022-08-03T10:51:32.815Z,10.30
2022-08-03T10:52:39.513Z,9.30
2022-08-03T10:53:34.788Z,7.70
2022-08-03T10:54:32.797Z,12.80
2022-08-03T10:55:32.792Z,7.60
2022-08-03T10:56:48.134Z,8.20
2022-08-03T10:57:33.828Z,12.70
2022-08-03T10:58:32.796Z,8.20
2022-08-03T10:59:32.800Z,11.10
2022-08-03T11:00:32.820Z,8.20
2022-08-03T11:01:58.962Z,7.50
2022-08-03T11:02:33.747Z,10.10
2022-08-03T11:03:32.758Z,9.70
2022-08-03T11:04:32.756Z,9.30
2022-08-03T11:05:32.730Z,10.20
2022-08-03T11:06:37.471Z,11.90
2022-08-03T11:07:33.730Z,11.80
2022-08-03T11:08:32.738Z,6.00
2022-08-03T11:09:32.717Z,9.70
2022-08-03T11:10:32.714Z,6.20
2022-08-03T11:11:32.692Z,10.40
2022-08-03T11:12:32.886Z,9.10
2022-08-03T11:13:32.719Z,10.50
2022-08-03T11:14:32.680Z,10.00
2022-08-03T11:15:33.688Z,10.60
2022-08-03T11:16:32.683Z,7.10
2022-08-03T11:17:32.673Z,10.10
2022-08-03T11:18:32.688Z,7.50
2022-08-03T11:19:32.672Z,11.20
2022-08-03T11:20:33.652Z,6.70
2022-08-03T11:21:33.652Z,10.90
2022-08-03T11:22:32.656Z,14.20
2022-08-03T11:24:05.335Z,9.60
2022-08-03T11:24:33.644Z,6.40
2022-08-03T11:25:53.139Z,5.10
2022-08-03T11:26:33.631Z,9.70
2022-08-03T11:27:32.629Z,8.70
2022-08-03T11:28:32.619Z,9.80
2022-08-03T11:29:32.607Z,6.30
2022-08-03T11:30:32.602Z,7.70
2022-08-03T11:31:49.134Z,7.00
2022-08-03T11:32:34.595Z,12.10
2022-08-03T11:33:32.587Z,12.80
2022-08-03T11:34:32.593Z,6.20
2022-08-03T11:35:32.587Z,8.40
2022-08-03T11:36:32.782Z,8.00
2022-08-03T11:37:33.477Z,11.70
2022-08-03T11:38:33.568Z,5.40
2022-08-03T11:39:32.575Z,7.80
2022-08-03T11:40:32.572Z,8.10
2022-08-03T11:41:32.551Z,6.00
2022-08-03T11:42:33.551Z,8.40
2022-08-03T11:43:32.535Z,8.60
2022-08-03T11:44:32.532Z,7.50
2022-08-03T11:45:32.534Z,6.70
2022-08-03T11:46:32.533Z,6.40
2022-08-03T11:47:32.527Z,10.80
2022-08-03T11:48:32.510Z,10.60
2022-08-03T11:49:32.534Z,10.00
2022-08-03T11:50:32.504Z,10.80
2022-08-03T11:51:32.499Z,8.20
2022-08-03T11:52:32.516Z,9.30
2022-08-03T11:53:32.483Z,7.00
2022-08-03T11:54:33.471Z,15.90
2022-08-03T11:55:32.476Z,7.40
2022-08-03T11:56:32.475Z,5.80
2022-08-03T11:58:57.762Z,8.70
2022-08-03T11:59:10.719Z,9.10
2022-08-03T11:59:33.447Z,7.10
2022-08-03T12:00:32.457Z,6.40
2022-08-03T12:01:32.437Z,10.10
2022-08-03T12:02:32.472Z,7.90
2022-08-03T12:03:32.508Z,7.00
2022-08-03T12:04:32.421Z,7.10
2022-08-03T12:05:32.418Z,5.70
2022-08-03T12:06:32.428Z,8.00
2022-08-03T12:08:03.408Z,9.20
2022-08-03T12:08:33.424Z,9.80
2022-08-03T12:09:32.392Z,6.60
2022-08-03T12:10:32.380Z,11.20
2022-08-03T12:11:32.377Z,5.70
2022-08-03T12:12:32.387Z,6.50
2022-08-03T12:14:28.931Z,10.60
2022-08-03T12:14:48.334Z,9.60
2022-08-03T12:15:33.360Z,7.60
2022-08-03T12:16:32.343Z,8.60
2022-08-03T12:17:32.347Z,7.10
2022-08-03T12:18:32.348Z,4.60
2022-08-03T12:19:32.335Z,10.30
2022-08-03T12:20:35.402Z,9.60
2022-08-03T12:21:32.347Z,8.50
2022-08-03T12:22:32.317Z,7.50
2022-08-03T12:23:37.343Z,12.10
2022-08-03T12:24:34.304Z,4.10
2022-08-03T12:25:39.569Z,5.60
2022-08-03T12:26:33.292Z,8.90
2022-08-03T12:27:32.287Z,8.20
2022-08-03T12:28:37.673Z,10.90
2022-08-03T12:29:34.271Z,6.30
2022-08-03T12:30:32.296Z,9.20
2022-08-03T12:31:32.268Z,10.10
2022-08-03T12:32:32.256Z,6.10
2022-08-03T12:33:32.252Z,6.30
2022-08-03T12:34:32.232Z,6.90
2022-08-03T12:35:32.241Z,10.30
2022-08-03T12:36:32.244Z,8.00
2022-08-03T12:37:32.561Z,9.50
2022-08-03T12:38:32.224Z,9.20
2022-08-03T12:39:32.218Z,9.20
2022-08-03T12:40:32.215Z,8.50
2022-08-03T12:41:33.960Z,11.00
2022-08-03T12:42:32.229Z,5.30
2022-08-03T12:43:37.601Z,10.50
2022-08-03T12:44:33.196Z,7.10
2022-08-03T12:45:32.184Z,6.80
2022-08-03T12:46:32.180Z,8.40
2022-08-03T12:47:32.188Z,6.90
2022-08-03T12:48:32.172Z,5.80
2022-08-03T12:49:32.202Z,7.30
2022-08-03T12:50:32.256Z,7.70
2022-08-03T12:51:32.334Z,9.50
2022-08-03T12:52:33.516Z,8.10
2022-08-03T12:53:33.135Z,9.90
2022-08-03T12:54:32.149Z,7.20
2022-08-03T12:55:32.127Z,6.40
2022-08-03T12:56:33.119Z,12.80
2022-08-03T12:57:32.119Z,6.00
2022-08-03T12:58:32.119Z,7.60
2022-08-03T12:59:35.472Z,4.90
2022-08-03T13:00:33.096Z,8.00